Time;durP1;ratioP1;P1;durP2;ratioP2;P2;SDS_P1;SDS_P2;PMS_P1;PMS_P2;Temp;Humidity;BMP_temperature;BMP_pressure;BME280_temperature;BME280_humidity;BME280_pressure;Samples;Min_cycle;Max_cycle;Signal;HPM_P1;HPM_P2
2022/10/17 00:02:15;;;;;;;13.07;7.65;;;;;;;12.94;100.00;101696.78;6219767;23;20087;-74
2022/10/17 00:04:42;;;;;;;9.93;7.30;;;;;;;12.92;100.00;101696.47;6219606;23;20055;-75
2022/10/17 00:07:08;;;;;;;8.85;7.13;;;;;;;12.90;100.00;101704.16;6220256;23;20036;-75
2022/10/17 00:09:34;;;;;;;11.98;7.10;;;;;;;12.89;100.00;101708.03;6220228;23;20462;-74
2022/10/17 00:12:01;;;;;;;7.35;6.53;;;;;;;12.86;100.00;101700.88;6220092;23;20091;-75
2022/10/17 00:14:28;;;;;;;8.45;7.10;;;;;;;12.83;100.00;101698.31;6219632;23;20021;-75
2022/10/17 00:16:54;;;;;;;9.10;7.05;;;;;;;12.84;100.00;101681.09;6220206;23;20451;-77
2022/10/17 00:19:20;;;;;;;9.93;6.82;;;;;;;12.84;100.00;101684.50;6219114;23;20048;-74
2022/10/17 00:21:48;;;;;;;8.27;7.45;;;;;;;12.82;100.00;101684.19;6220071;23;20021;-75
2022/10/17 00:24:14;;;;;;;7.60;7.05;;;;;;;12.81;100.00;101682.72;6219669;23;20049;-74
2022/10/17 00:26:41;;;;;;;8.82;7.85;;;;;;;12.79;100.00;101681.66;6219833;23;20092;-75
2022/10/17 00:29:07;;;;;;;13.35;7.88;;;;;;;12.78;100.00;101672.16;6219908;23;20410;-74
2022/10/17 00:31:34;;;;;;;10.05;7.60;;;;;;;12.77;100.00;101671.41;6219539;23;20502;-75
2022/10/17 00:34:01;;;;;;;12.80;7.47;;;;;;;12.76;100.00;101669.16;6219234;23;20076;-75
2022/10/17 00:36:28;;;;;;;9.75;7.50;;;;;;;12.76;100.00;101672.59;6219509;23;20026;-77
2022/10/17 00:38:57;;;;;;;9.05;7.93;;;;;;;12.75;100.00;101671.09;6168164;23;20431;-75
2022/10/17 00:41:29;;;;;;;10.77;7.97;;;;;;;12.75;100.00;101673.78;6192296;23;20068;-74
2022/10/17 00:43:59;;;;;;;10.10;8.38;;;;;;;12.77;100.00;101673.34;6193519;23;20049;-74
2022/10/17 00:46:29;;;;;;;12.85;7.85;;;;;;;12.77;100.00;101678.69;6194115;23;20013;-74
2022/10/17 00:49:01;;;;;;;10.38;8.15;;;;;;;12.75;100.00;101667.69;6220641;23;20428;-74
2022/10/17 00:51:39;;;;;;;9.20;7.72;;;;;;;12.75;100.00;101660.41;6219384;23;20020;-74
2022/10/17 00:54:07;;;;;;;9.23;8.05;;;;;;;12.74;100.00;101666.94;6218772;23;20101;-74
2022/10/17 00:56:34;;;;;;;8.35;7.35;;;;;;;12.75;100.00;101667.69;6220421;23;20028;-74
2022/10/17 00:59:01;;;;;;;9.10;8.07;;;;;;;12.74;100.00;101672.28;6220843;23;20021;-74
2022/10/17 01:01:27;;;;;;;9.00;8.13;;;;;;;12.75;100.00;101665.00;6220300;23;20068;-77
2022/10/17 01:03:56;;;;;;;9.15;8.30;;;;;;;12.72;100.00;101661.28;6193594;23;20080;-77
2022/10/17 01:06:23;;;;;;;11.88;8.35;;;;;;;12.73;100.00;101662.75;6193971;23;20076;-77
2022/10/17 01:08:49;;;;;;;9.30;8.20;;;;;;;12.74;100.00;101661.59;6221175;23;20462;-76
2022/10/17 01:11:35;;;;;;;12.80;8.05;;;;;;;12.76;100.00;101659.22;6220653;23;20040;-76
2022/10/17 01:14:12;;;;;;;9.20;8.07;;;;;;;12.77;100.00;101658.06;6221136;23;20056;-76
2022/10/17 01:16:56;;;;;;;9.55;7.40;;;;;;;12.77;100.00;101652.72;6193693;23;20889;-76
2022/10/17 01:19:57;;;;;;;8.50;7.75;;;;;;;12.77;100.00;101643.94;6220493;23;20088;-76
2022/10/17 01:22:35;;;;;;;11.85;8.40;;;;;;;12.75;100.00;101652.41;6193843;23;20104;-75
2022/10/17 01:25:29;;;;;;;8.23;7.53;;;;;;;12.74;100.00;101648.22;6221237;23;20454;-75
2022/10/17 01:28:10;;;;;;;9.52;7.80;;;;;;;12.71;100.00;101643.75;6193907;23;20104;-75
2022/10/17 01:30:45;;;;;;;9.00;7.38;;;;;;;12.69;100.00;101649.53;6171721;23;20092;-75
2022/10/17 01:33:33;;;;;;;8.98;7.88;;;;;;;12.68;100.00;101645.34;6220240;23;20013;-75
2022/10/17 01:36:10;;;;;;;8.80;7.70;;;;;;;12.68;100.00;101641.94;6193949;23;20025;-75
2022/10/17 01:38:48;;;;;;;8.95;7.80;;;;;;;12.66;100.00;101634.34;6194255;23;20017;-75
2022/10/17 01:41:42;;;;;;;9.23;8.27;;;;;;;12.67;100.00;101635.84;6193893;23;20021;-75
2022/10/17 01:44:25;;;;;;;10.05;8.23;;;;;;;12.67;100.00;101637.78;6220583;23;20048;-75
2022/10/17 01:47:00;;;;;;;8.85;7.97;;;;;;;12.69;100.00;101635.41;6220420;23;20085;-75
2022/10/17 01:49:30;;;;;;;11.95;8.55;;;;;;;12.69;100.00;101636.16;6220526;23;20013;-74
2022/10/17 01:52:07;;;;;;;10.93;8.02;;;;;;;12.71;100.00;101634.97;6193849;23;20021;-75
2022/10/17 01:54:44;;;;;;;9.07;8.07;;;;;;;12.73;100.00;101632.63;6220332;23;20017;-75
2022/10/17 01:57:19;;;;;;;11.82;8.77;;;;;;;12.73;100.00;101622.69;6193299;23;20029;-75
2022/10/17 01:59:50;;;;;;;10.18;8.57;;;;;;;12.75;100.00;101622.25;6193968;23;20017;-75
2022/10/17 02:02:18;;;;;;;10.98;8.07;;;;;;;12.75;100.00;101620.34;6220074;23;20013;-75
2022/10/17 02:04:48;;;;;;;8.88;7.93;;;;;;;12.76;100.00;101611.16;6193866;23;20076;-75
2022/10/17 02:07:15;;;;;;;14.27;8.48;;;;;;;12.78;100.00;101595.44;6193813;23;20025;-75
2022/10/17 02:09:42;;;;;;;9.50;8.63;;;;;;;12.80;100.00;101594.97;6193929;23;20017;-74
2022/10/17 02:12:15;;;;;;;9.65;8.75;;;;;;;12.82;100.00;101592.59;6169165;23;20086;-75
2022/10/17 02:14:47;;;;;;;10.85;8.82;;;;;;;12.85;100.00;101595.16;6192899;23;20099;-75
2022/10/17 02:17:32;;;;;;;9.98;9.00;;;;;;;12.84;100.00;101585.66;6193834;23;20017;-75
2022/10/17 02:20:08;;;;;;;11.88;8.77;;;;;;;12.85;100.00;101592.50;6193909;23;20017;-75
2022/10/17 02:22:46;;;;;;;11.70;8.82;;;;;;;12.87;100.00;101589.38;6194023;23;20017;-75
2022/10/17 02:25:30;;;;;;;10.52;8.98;;;;;;;12.86;100.00;101585.97;6220446;23;20020;-75
2022/10/17 02:28:19;;;;;;;9.88;8.98;;;;;;;12.89;100.00;101592.38;6220939;23;20045;-75
2022/10/17 02:31:05;;;;;;;10.48;9.30;;;;;;;12.89;100.00;101585.09;6193188;23;20087;-75
2022/10/17 02:33:55;;;;;;;13.82;8.90;;;;;;;12.89;100.00;101585.09;6220249;23;20013;-75
2022/10/17 02:36:26;;;;;;;10.38;8.82;;;;;;;12.89;100.00;101579.75;6193045;23;20025;-74
2022/10/17 02:38:54;;;;;;;9.75;8.80;;;;;;;12.88;100.00;101586.28;6194047;23;20021;-75
2022/10/17 02:41:22;;;;;;;9.85;8.93;;;;;;;12.88;100.00;101580.19;6193186;23;20017;-75
2022/10/17 02:43:52;;;;;;;9.93;8.90;;;;;;;12.88;100.00;101577.50;6187779;23;20018;-75
2022/10/17 02:46:22;;;;;;;13.95;9.32;;;;;;;12.87;100.00;101565.34;6190036;23;20452;-74
2022/10/17 02:48:54;;;;;;;10.75;9.65;;;;;;;12.86;100.00;101572.59;6188475;23;20028;-74
2022/10/17 02:51:45;;;;;;;10.88;8.93;;;;;;;12.84;100.00;101574.97;6188528;23;20466;-74
2022/10/17 02:54:21;;;;;;;15.18;9.35;;;;;;;12.81;100.00;101575.81;6188498;23;20014;-74
2022/10/17 02:56:53;;;;;;;9.45;8.63;;;;;;;12.83;100.00;101578.06;6188639;23;20021;-74
2022/10/17 02:59:23;;;;;;;9.68;8.68;;;;;;;12.84;100.00;101574.97;6189478;23;20479;-76
2022/10/17 03:01:51;;;;;;;11.00;9.32;;;;;;;12.84;100.00;101582.97;6188723;23;20057;-76
2022/10/17 03:04:18;;;;;;;10.65;9.43;;;;;;;12.89;100.00;101587.03;6189922;23;20476;-76
2022/10/17 03:06:46;;;;;;;9.80;8.75;;;;;;;12.90;100.00;101594.59;6189870;23;20084;-76
2022/10/17 03:09:13;;;;;;;10.43;9.30;;;;;;;12.90;100.00;101586.59;6188588;23;20048;-77
2022/10/17 03:11:40;;;;;;;15.75;9.00;;;;;;;12.91;100.00;101595.34;6188623;23;20045;-76
2022/10/17 03:14:07;;;;;;;9.77;8.88;;;;;;;12.91;100.00;101593.44;6187973;23;20097;-76
2022/10/17 03:16:35;;;;;;;9.68;8.88;;;;;;;12.97;100.00;101581.00;6188490;23;20021;-76
2022/10/17 03:19:03;;;;;;;11.60;9.05;;;;;;;13.03;100.00;101581.19;6188368;23;20489;-76
2022/10/17 03:21:30;;;;;;;9.63;8.73;;;;;;;13.06;100.00;101579.56;6188197;23;20041;-76
2022/10/17 03:23:57;;;;;;;9.82;8.82;;;;;;;13.14;100.00;101578.16;6188637;23;20455;-76
2022/10/17 03:26:23;;;;;;;11.88;8.70;;;;;;;13.22;100.00;101580.13;6188233;23;20024;-76
2022/10/17 03:28:50;;;;;;;9.07;8.02;;;;;;;13.28;100.00;101581.06;6187977;23;20049;-76
2022/10/17 03:31:21;;;;;;;12.32;9.30;;;;;;;13.40;100.00;101578.75;6187976;23;20028;-76
2022/10/17 03:33:48;;;;;;;10.13;8.73;;;;;;;13.45;100.00;101586.97;6188398;23;20475;-76
2022/10/17 03:36:17;;;;;;;10.95;9.52;;;;;;;13.54;100.00;101595.03;6188022;23;20108;-76
2022/10/17 03:38:45;;;;;;;9.70;8.75;;;;;;;13.58;100.00;101590.31;6188749;23;20105;-76
2022/10/17 03:41:12;;;;;;;22.00;8.90;;;;;;;13.63;100.00;101586.28;6188153;23;20024;-76
2022/10/17 03:43:39;;;;;;;10.23;9.23;;;;;;;13.64;100.00;101583.16;6187599;23;20536;-76
2022/10/17 03:46:06;;;;;;;9.48;8.45;;;;;;;13.68;100.00;101588.38;6188378;23;20362;-74
2022/10/17 03:48:34;;;;;;;12.65;9.13;;;;;;;13.71;100.00;101602.81;6163772;23;20026;-76
2022/10/17 03:51:07;;;;;;;9.85;8.88;;;;;;;13.74;100.00;101601.94;6188380;23;20383;-76
2022/10/17 03:53:39;;;;;;;10.50;8.48;;;;;;;13.76;100.00;101604.91;6188938;23;20025;-74
2022/10/17 03:56:09;;;;;;;11.55;8.70;;;;;;;13.76;100.00;101599.56;6188201;23;20021;-76
2022/10/17 03:58:36;;;;;;;14.02;9.25;;;;;;;13.75;100.00;101598.81;6188195;23;20026;-74
2022/10/17 04:01:06;;;;;;;9.10;8.30;;;;;;;13.75;100.00;101600.75;6188319;23;20022;-74
2022/10/17 04:03:33;;;;;;;9.65;8.73;;;;;;;13.74;100.00;101597.34;6188133;23;20022;-76
2022/10/17 04:06:00;;;;;;;10.27;9.23;;;;;;;13.75;100.00;101592.72;6189990;23;20459;-77
2022/10/17 04:08:29;;;;;;;9.98;8.98;;;;;;;13.75;100.00;101592.72;6187578;23;21022;-74
2022/10/17 04:11:17;;;;;;;10.63;9.03;;;;;;;13.74;100.00;101589.31;6186967;23;20028;-74
2022/10/17 04:13:45;;;;;;;10.48;9.02;;;;;;;13.74;100.00;101596.59;6187949;23;20221;-74
2022/10/17 04:16:14;;;;;;;9.80;8.85;;;;;;;13.76;100.00;101605.66;6187556;23;20022;-76
2022/10/17 04:18:54;;;;;;;9.73;8.70;;;;;;;13.74;100.00;101602.69;6188563;23;20021;-74
2022/10/17 04:21:27;;;;;;;10.95;8.75;;;;;;;13.75;100.00;101598.81;6189148;23;20014;-76
2022/10/17 04:23:59;;;;;;;11.32;9.10;;;;;;;13.74;100.00;101610.72;6191331;23;20045;-74
2022/10/17 04:26:52;;;;;;;10.10;8.68;;;;;;;13.76;100.00;101612.94;6187014;23;20025;-76
2022/10/17 04:29:21;;;;;;;11.00;8.63;;;;;;;13.76;100.00;101613.69;6188670;23;20022;-76
2022/10/17 04:31:51;;;;;;;11.63;8.60;;;;;;;13.74;100.00;101604.63;6189214;23;20096;-74
2022/10/17 04:34:29;;;;;;;9.63;8.73;;;;;;;13.73;100.00;101600.44;6189263;23;20108;-75
2022/10/17 04:36:56;;;;;;;13.93;9.30;;;;;;;13.73;100.00;101606.53;6189886;23;20025;-76
2022/10/17 04:39:22;;;;;;;10.05;8.80;;;;;;;13.75;100.00;101609.53;6191513;23;20021;-76
2022/10/17 04:41:49;;;;;;;11.25;9.13;;;;;;;13.76;100.00;101607.59;6188577;23;20017;-77
2022/10/17 04:44:16;;;;;;;10.30;8.77;;;;;;;13.76;100.00;101607.59;6187094;23;20021;-76
2022/10/17 04:46:48;;;;;;;10.85;9.63;;;;;;;13.78;100.00;101624.72;6187436;23;20020;-76
2022/10/17 04:49:14;;;;;;;10.02;9.02;;;;;;;13.80;100.00;101624.28;6187430;23;20017;-77
2022/10/17 04:51:43;;;;;;;9.40;8.48;;;;;;;13.83;100.00;101629.50;6187916;23;20101;-77
2022/10/17 04:54:16;;;;;;;14.63;8.90;;;;;;;13.85;100.00;101626.38;6189551;23;20435;-77
2022/10/17 04:56:46;;;;;;;11.70;8.73;;;;;;;13.88;100.00;101636.19;6189463;23;20025;-77
2022/10/17 04:59:12;;;;;;;9.93;8.57;;;;;;;13.88;100.00;101634.28;6189967;23;20359;-78
2022/10/17 05:01:41;;;;;;;10.18;9.23;;;;;;;13.89;100.00;101641.13;6189826;23;20412;-77
2022/10/17 05:04:07;;;;;;;10.75;8.75;;;;;;;13.91;100.00;101643.34;6189910;23;20025;-75
2022/10/17 05:06:36;;;;;;;12.85;8.85;;;;;;;13.92;100.00;101639.50;6189835;23;20025;-76
2022/10/17 05:09:35;;;;;;;9.43;8.52;;;;;;;13.94;100.00;101640.53;6172438;23;20033;-76
2022/10/17 05:12:03;;;;;;;9.48;8.15;;;;;;;13.96;100.00;101648.13;6189702;23;20395;-77
2022/10/17 05:14:36;;;;;;;10.38;8.50;;;;;;;13.97;100.00;101638.91;6190090;23;20021;-77
2022/10/17 05:17:03;;;;;;;9.52;8.60;;;;;;;13.96;100.00;101643.53;6189662;23;20022;-77
2022/10/17 05:19:30;;;;;;;12.20;9.05;;;;;;;13.96;100.00;101650.81;6189616;23;20073;-79
2022/10/17 05:21:57;;;;;;;9.75;8.05;;;;;;;13.99;100.00;101639.22;6189690;23;20120;-76
2022/10/17 05:24:23;;;;;;;17.70;9.52;;;;;;;14.01;100.00;101642.19;6189301;23;20022;-76
2022/10/17 05:26:50;;;;;;;10.02;8.95;;;;;;;14.02;100.00;101647.09;6189941;23;20037;-76
2022/10/17 05:29:17;;;;;;;9.38;8.48;;;;;;;14.08;100.00;101636.56;6189462;23;20072;-77
2022/10/17 05:31:49;;;;;;;12.85;8.50;;;;;;;14.09;100.00;101639.97;6190111;23;20040;-77
2022/10/17 05:34:17;;;;;;;10.20;8.43;;;;;;;14.11;100.00;101643.72;6189802;23;20113;-76
2022/10/17 05:36:44;;;;;;;12.52;8.35;;;;;;;14.15;100.00;101651.59;6189688;23;20347;-77
2022/10/17 05:39:13;;;;;;;16.65;8.45;;;;;;;14.15;100.00;101649.69;6189121;23;20451;-77
2022/10/17 05:41:40;;;;;;;8.80;7.90;;;;;;;14.17;100.00;101657.25;6189500;23;20053;-77
2022/10/17 05:44:07;;;;;;;9.10;8.02;;;;;;;14.18;100.00;101664.84;6189700;23;20025;-76
2022/10/17 05:46:39;;;;;;;10.88;8.75;;;;;;;14.20;100.00;101667.09;6189604;23;20022;-76
2022/10/17 05:49:05;;;;;;;13.07;8.65;;;;;;;14.19;100.00;101662.94;6189450;23;20028;-76
2022/10/17 05:51:50;;;;;;;11.55;8.27;;;;;;;14.18;100.00;101654.16;6190091;23;20820;-76
2022/10/17 05:54:17;;;;;;;14.82;8.70;;;;;;;14.18;100.00;101651.47;6189187;23;20455;-77
2022/10/17 05:56:44;;;;;;;12.88;8.25;;;;;;;14.20;100.00;101659.06;6189579;23;20072;-77
2022/10/17 05:59:10;;;;;;;11.32;8.45;;;;;;;14.19;100.00;101644.94;6189440;23;20025;-77
2022/10/17 06:01:46;;;;;;;10.82;8.45;;;;;;;14.19;100.00;101642.25;6189265;23;20022;-76
2022/10/17 06:04:13;;;;;;;16.80;8.43;;;;;;;14.20;100.00;101643.75;6189638;23;20025;-77
2022/10/17 06:06:40;;;;;;;9.05;8.25;;;;;;;14.22;100.00;101643.31;6189181;23;20403;-93
2022/10/17 06:09:08;;;;;;;12.85;8.27;;;;;;;14.23;100.00;101650.91;6189644;23;20053;-76
2022/10/17 06:11:38;;;;;;;10.85;8.38;;;;;;;14.26;100.00;101659.97;6189262;23;20486;-77
2022/10/17 06:14:05;;;;;;;9.10;8.20;;;;;;;14.29;100.00;101665.19;6189193;23;20018;-79
2022/10/17 06:16:31;;;;;;;11.55;8.00;;;;;;;14.30;100.00;101671.31;6191056;23;20017;-77
2022/10/17 06:18:58;;;;;;;8.35;7.65;;;;;;;14.30;100.00;101658.66;6189521;23;20058;-76
2022/10/17 06:21:26;;;;;;;10.05;8.25;;;;;;;14.30;100.00;101655.97;6188898;23;20017;-78
2022/10/17 06:24:02;;;;;;;11.80;7.50;;;;;;;14.32;100.00;101658.97;6189503;23;20028;-78
2022/10/17 06:26:33;;;;;;;11.45;8.25;;;;;;;14.34;100.00;101667.28;6189630;23;20530;-78
2022/10/17 06:28:59;;;;;;;10.52;8.10;;;;;;;14.37;100.00;101678.31;6191241;23;20028;-77
2022/10/17 06:31:31;;;;;;;10.90;8.45;;;;;;;14.42;100.00;101685.78;6189623;23;20013;-78
2022/10/17 06:33:57;;;;;;;9.75;8.30;;;;;;;14.43;100.00;101689.94;6191467;23;20089;-82
2022/10/17 06:36:24;;;;;;;8.65;7.78;;;;;;;14.44;100.00;101696.78;6188945;23;20021;-77
2022/10/17 06:38:50;;;;;;;8.65;7.82;;;;;;;14.47;100.00;101696.66;6189559;23;20025;-77
2022/10/17 06:41:22;;;;;;;;;;;;;;;14.48;100.00;101692.03;6189564;23;20411;-77
2022/10/17 06:43:51;;;;;;;9.30;7.63;;;;;;;14.50;100.00;101703.06;6165074;23;19989;-77
2022/10/17 06:47:00;;;;;;;11.27;7.65;;;;;;;14.49;100.00;101696.97;6172837;23;20025;-79
2022/10/17 06:49:27;;;;;;;9.35;8.18;;;;;;;14.53;100.00;101699.50;6189306;23;20422;-78
2022/10/17 06:52:04;;;;;;;9.13;7.78;;;;;;;14.56;100.00;101706.66;6190674;23;20014;-78
2022/10/17 06:54:39;;;;;;;9.02;8.10;;;;;;;14.58;100.00;101715.00;6189256;23;20013;-78
2022/10/17 06:57:21;;;;;;;12.38;7.97;;;;;;;14.59;100.00;101722.59;6189221;23;20426;-78
2022/10/17 07:00:01;;;;;;;8.15;7.53;;;;;;;14.63;100.00;101725.13;6167325;23;20029;-78
2022/10/17 07:02:33;;;;;;;8.52;7.63;;;;;;;14.63;100.00;101728.56;6189555;23;20026;-78
2022/10/17 07:05:00;;;;;;;9.98;8.10;;;;;;;14.64;100.00;101724.69;6190523;23;20064;-78
2022/10/17 07:07:31;;;;;;;8.55;7.53;;;;;;;14.66;100.00;101725.00;6191108;23;20061;-78
2022/10/17 07:09:58;;;;;;;9.65;7.88;;;;;;;14.68;100.00;101724.56;6189072;23;20022;-77
2022/10/17 07:12:24;;;;;;;9.32;7.80;;;;;;;14.68;100.00;101729.91;6189339;23;20159;-78
2022/10/17 07:14:52;;;;;;;13.35;7.70;;;;;;;14.69;100.00;101736.75;6189421;23;20018;-77
2022/10/17 07:17:18;;;;;;;10.50;7.53;;;;;;;14.70;100.00;101740.94;6190971;23;20104;-77
2022/10/17 07:19:45;;;;;;;10.07;7.68;;;;;;;14.70;100.00;101735.56;6188516;23;20025;-77
2022/10/17 07:22:12;;;;;;;9.07;7.57;;;;;;;14.70;100.00;101738.25;6189365;23;20018;-77
2022/10/17 07:24:42;;;;;;;10.95;8.60;;;;;;;14.71;100.00;101745.09;6189182;23;20052;-77
2022/10/17 07:27:17;;;;;;;13.43;8.07;;;;;;;14.73;100.00;101739.31;6189012;23;20022;-76
2022/10/17 07:29:45;;;;;;;9.35;8.38;;;;;;;14.73;100.00;101733.94;6188827;23;20080;-77
2022/10/17 07:32:43;;;;;;;9.15;7.72;;;;;;;14.74;100.00;101732.75;6128647;23;20026;-77
2022/10/17 07:35:11;;;;;;;14.15;7.80;;;;;;;14.74;100.00;101735.44;6103244;23;20019;-77
2022/10/17 07:37:39;;;;;;;9.43;7.82;;;;;;;14.75;100.00;101745.72;6080016;23;20357;-76
2022/10/17 07:40:09;;;;;;;9.82;7.43;;;;;;;14.77;100.00;101754.06;6103774;23;20056;-77
2022/10/17 07:42:36;;;;;;;15.65;7.93;;;;;;;14.78;100.00;101747.50;6127598;23;20034;-76
2022/10/17 07:45:04;;;;;;;8.55;7.65;;;;;;;14.78;100.00;101744.09;6103631;23;20022;-76
2022/10/17 07:47:34;;;;;;;8.38;7.45;;;;;;;14.80;100.00;101750.47;6103457;23;20026;-77
2022/10/17 07:50:02;;;;;;;11.13;7.70;;;;;;;14.83;100.00;101764.91;6102838;23;20026;-77
2022/10/17 07:52:28;;;;;;;11.10;8.18;;;;;;;14.84;100.00;101769.84;6128648;23;20113;-77
2022/10/17 07:54:55;;;;;;;8.88;7.85;;;;;;;14.84;100.00;101783.25;6128216;23;20023;-78
2022/10/17 07:57:22;;;;;;;8.38;7.60;;;;;;;14.83;100.00;101821.94;6128384;23;20090;-76
2022/10/17 07:59:50;;;;;;;9.02;7.57;;;;;;;14.82;100.00;101849.94;6128434;23;20026;-77
2022/10/17 08:02:24;;;;;;;9.75;8.15;;;;;;;14.83;100.00;101872.13;6128215;23;20097;-83
2022/10/17 08:04:52;;;;;;;13.07;9.25;;;;;;;14.81;100.00;101872.59;6127738;23;20093;-76
2022/10/17 08:07:19;;;;;;;14.68;8.05;;;;;;;14.84;100.00;101895.81;6130803;23;20575;-76
2022/10/17 08:09:53;;;;;;;10.15;7.53;;;;;;;14.85;100.00;101899.25;6190798;23;20028;-75
2022/10/17 08:12:20;;;;;;;8.90;7.95;;;;;;;14.90;100.00;101904.03;6190625;23;20010;-76
2022/10/17 08:14:47;;;;;;;11.18;7.65;;;;;;;14.89;100.00;101892.56;6190637;23;20133;-76
2022/10/17 08:17:14;;;;;;;16.15;7.90;;;;;;;14.92;100.00;101899.00;6186658;23;20056;-76
2022/10/17 08:19:40;;;;;;;12.38;7.43;;;;;;;14.95;100.00;101909.56;6190279;23;20017;-76
2022/10/17 08:22:07;;;;;;;9.70;6.95;;;;;;;14.97;100.00;101904.53;6190080;23;20018;-76
2022/10/17 08:24:33;;;;;;;10.35;6.93;;;;;;;14.98;100.00;101881.13;6190206;23;20080;-75
2022/10/17 08:27:00;;;;;;;12.93;7.55;;;;;;;15.04;100.00;101878.63;6190183;23;20041;-76
2022/10/17 08:29:27;;;;;;;13.85;7.40;;;;;;;15.06;100.00;101876.25;6190290;23;20089;-77
2022/10/17 08:31:53;;;;;;;10.45;7.22;;;;;;;15.09;100.00;101873.44;6189576;23;20014;-75
2022/10/17 08:34:27;;;;;;;10.25;7.75;;;;;;;15.14;100.00;101894.31;6190255;23;20017;-75
2022/10/17 08:36:53;;;;;;;8.00;7.30;;;;;;;15.17;100.00;101895.38;6189906;23;20495;-75
2022/10/17 08:39:20;;;;;;;14.05;7.50;;;;;;;15.18;100.00;101900.28;6190284;23;20101;-75
2022/10/17 08:42:30;;;;;;;7.60;6.93;;;;;;;15.20;100.00;101915.91;6190035;23;20412;-76
2022/10/17 08:45:01;;;;;;;12.20;7.13;;;;;;;15.22;100.00;101938.41;6218373;23;20009;-75
2022/10/17 08:47:33;;;;;;;;;;;;;;;15.26;100.00;101944.41;6218213;23;20040;-75
2022/10/17 08:50:02;;;;;;;8.85;7.00;;;;;;;15.29;100.00;101953.50;6218246;23;19932;-75
2022/10/17 08:52:29;;;;;;;10.65;7.32;;;;;;;15.30;100.00;101968.41;6218454;23;20020;-75
2022/10/17 08:54:55;;;;;;;10.15;7.70;;;;;;;15.31;100.00;101973.31;6218250;23;20091;-75
2022/10/17 08:57:22;;;;;;;10.23;7.38;;;;;;;15.32;100.00;101968.72;6218024;23;20056;-75
2022/10/17 08:59:51;;;;;;;8.43;7.57;;;;;;;15.33;100.00;101957.53;6218073;23;20719;-74
2022/10/17 09:02:56;;;;;;;9.77;7.25;;;;;;;15.34;100.00;101947.56;6217710;23;20052;-75
2022/10/17 09:05:29;;;;;;;9.65;7.68;;;;;;;15.33;100.00;101925.34;6219991;23;20017;-76
2022/10/17 09:08:26;;;;;;;8.65;7.90;;;;;;;15.35;100.00;101911.47;6220284;23;20037;-76
2022/10/17 09:11:17;;;;;;;10.43;7.47;;;;;;;15.36;100.00;101888.84;6220000;23;20048;-76
2022/10/17 09:14:11;;;;;;;12.23;7.57;;;;;;;15.39;100.00;101863.81;6220053;23;20024;-76
2022/10/17 09:16:38;;;;;;;9.82;6.90;;;;;;;15.41;100.00;101872.16;6219238;23;20419;-77
2022/10/17 09:19:16;;;;;;;10.05;7.53;;;;;;;15.46;100.00;101884.25;6219984;23;20068;-75
2022/10/17 09:21:56;;;;;;;8.80;8.02;;;;;;;15.46;100.00;101874.25;6219970;23;20104;-75
2022/10/17 09:24:27;;;;;;;12.23;7.95;;;;;;;15.49;100.00;101883.34;6219870;23;20013;-75
2022/10/17 09:26:54;;;;;;;9.57;8.23;;;;;;;15.49;100.00;101886.03;6219837;23;20013;-76
2022/10/17 09:29:24;;;;;;;8.88;8.05;;;;;;;15.50;100.00;101901.69;6219886;23;20040;-76
2022/10/17 09:31:59;;;;;;;12.05;7.85;;;;;;;15.51;100.00;101937.31;6192411;23;20112;-75
2022/10/17 09:34:28;;;;;;;10.70;7.72;;;;;;;15.50;100.00;101943.88;6219860;23;20013;-77
2022/10/17 09:36:57;;;;;;;11.07;7.45;;;;;;;15.49;100.00;101963.84;6219677;23;20041;-75
2022/10/17 09:39:25;;;;;;;12.07;8.10;;;;;;;15.48;100.00;101971.16;6219488;23;20048;-76
2022/10/17 09:41:54;;;;;;;8.85;8.00;;;;;;;15.47;100.00;101952.81;6219762;23;20049;-76
2022/10/17 09:44:31;;;;;;;8.35;7.57;;;;;;;15.49;100.00;101934.34;6189275;23;94658;-76
2022/10/17 09:47:22;;;;;;;9.90;7.45;;;;;;;15.50;100.00;101914.34;6221522;23;20083;-76
2022/10/17 09:49:50;;;;;;;10.93;8.60;;;;;;;15.53;100.00;101900.06;6194475;23;20028;-75
2022/10/17 09:52:18;;;;;;;8.93;7.63;;;;;;;15.55;100.00;101897.66;6194226;23;20522;-76
2022/10/17 09:54:51;;;;;;;10.85;7.82;;;;;;;15.59;100.00;101912.47;6221163;23;20383;-75
2022/10/17 09:57:20;;;;;;;13.88;7.60;;;;;;;15.63;100.00;101909.63;6221387;23;20021;-75
2022/10/17 10:00:01;;;;;;;8.55;7.75;;;;;;;15.67;100.00;101908.28;6220338;23;20020;-76
2022/10/17 10:02:29;;;;;;;8.82;7.93;;;;;;;15.72;100.00;101912.31;6221394;23;20095;-75
2022/10/17 10:05:15;;;;;;;8.70;7.88;;;;;;;15.76;100.00;101912.16;6221352;23;20458;-75
2022/10/17 10:07:45;;;;;;;10.68;7.60;;;;;;;15.77;100.00;101954.69;6221545;23;20097;-74
2022/10/17 10:10:26;;;;;;;9.95;8.70;;;;;;;15.77;100.00;101959.31;6221183;23;20092;-75
2022/10/17 10:13:16;;;;;;;8.05;7.30;;;;;;;15.77;100.00;101953.94;6221320;23;20018;-76
2022/10/17 10:15:48;;;;;;;12.27;7.60;;;;;;;15.80;100.00;101961.09;6220690;23;20455;-76
2022/10/17 10:18:23;;;;;;;7.70;7.10;;;;;;;15.82;100.00;101961.41;6221187;23;20447;-75
2022/10/17 10:21:02;;;;;;;8.55;7.00;;;;;;;15.87;100.00;101988.41;6194710;23;20018;-75
2022/10/17 10:23:28;;;;;;;8.30;7.50;;;;;;;15.90;100.00;101994.81;6221250;23;20857;-76
2022/10/17 10:26:04;;;;;;;11.80;7.40;;;;;;;15.91;100.00;102012.44;6221249;23;20080;-75
2022/10/17 10:28:33;;;;;;;8.35;7.55;;;;;;;15.89;100.00;102026.31;6220749;23;20037;-76
2022/10/17 10:31:08;;;;;;;10.35;7.63;;;;;;;15.88;100.00;102032.13;6221453;23;20076;-76
2022/10/17 10:33:39;;;;;;;11.18;7.75;;;;;;;15.86;100.00;102029.13;6221216;23;20021;-74
2022/10/17 10:36:07;;;;;;;8.00;6.80;;;;;;;15.87;100.00;102030.63;6221157;23;20048;-74
2022/10/17 10:38:38;;;;;;;7.43;6.72;;;;;;;15.86;100.00;102035.25;6220937;23;20040;-75
2022/10/17 10:41:07;;;;;;;7.93;7.22;;;;;;;15.90;100.00;102040.47;6221178;23;20023;-75
2022/10/17 10:43:36;;;;;;;7.38;6.78;;;;;;;15.92;100.00;102040.78;6220227;23;20132;-74
2022/10/17 10:46:15;;;;;;;11.43;8.30;;;;;;;15.96;100.00;102036.00;6221132;23;20044;-74
2022/10/17 10:48:50;;;;;;;7.90;7.22;;;;;;;15.98;100.00;102036.31;6221210;23;20526;-74
2022/10/17 10:51:22;;;;;;;8.05;7.32;;;;;;;15.99;100.00;102043.19;6194496;23;20080;-75
2022/10/17 10:53:55;;;;;;;8.80;7.07;;;;;;;15.98;100.00;102036.31;6221357;23;20091;-76
2022/10/17 10:56:27;;;;;;;7.22;6.57;;;;;;;15.98;100.00;102039.75;6194326;23;20101;-77
2022/10/17 10:59:07;;;;;;;7.65;7.05;;;;;;;15.98;100.00;102052.44;6220474;23;20017;-74
2022/10/17 11:01:54;;;;;;;6.55;5.88;;;;;;;16.01;100.00;102048.81;6221143;23;20048;-78
2022/10/17 11:04:39;;;;;;;8.82;6.82;;;;;;;16.09;100.00;102057.34;6220932;23;20096;-77
2022/10/17 11:07:21;;;;;;;6.93;6.43;;;;;;;16.15;100.00;102053.63;6221084;23;20129;-77
2022/10/17 11:09:59;;;;;;;7.47;5.95;;;;;;;16.21;100.00;102056.47;6220950;23;20020;-77
2022/10/17 11:12:44;;;;;;;9.23;6.30;;;;;;;16.24;100.00;102067.09;6220350;23;20127;-77
2022/10/17 11:15:24;;;;;;;7.15;6.20;;;;;;;16.24;100.00;102067.09;6194241;23;20135;-77
2022/10/17 11:18:02;;;;;;;6.53;6.03;;;;;;;16.26;100.00;102067.38;6220823;23;20088;-77
2022/10/17 11:20:41;;;;;;;6.20;5.70;;;;;;;16.34;100.00;102073.22;6220815;23;20013;-77
2022/10/17 11:23:18;;;;;;;5.80;5.25;;;;;;;16.40;100.00;102084.09;6220887;23;20498;-77
2022/10/17 11:25:53;;;;;;;7.60;6.07;;;;;;;16.38;100.00;102083.81;6220221;23;20021;-77
2022/10/17 11:28:22;;;;;;;6.43;5.93;;;;;;;16.33;100.00;102087.84;6220284;23;20017;-81
2022/10/17 11:30:59;;;;;;;9.10;5.50;;;;;;;16.30;100.00;102086.06;6220789;23;20084;-79
2022/10/17 11:33:37;;;;;;;6.47;5.97;;;;;;;16.26;100.00;102094.25;6220832;23;20459;-77
2022/10/17 11:36:05;;;;;;;7.07;6.50;;;;;;;16.23;100.00;102103.19;6220849;23;20052;-76
2022/10/17 11:38:46;;;;;;;10.68;6.47;;;;;;;16.22;100.00;102106.34;6220737;23;20347;-80